createdAt,value
2023-02-24T00:02:00.930Z,57.83
2023-02-24T00:04:32.550Z,53.00
2023-02-24T00:07:00.787Z,64.97
2023-02-24T00:09:31.699Z,66.50
2023-02-24T00:12:05.676Z,56.35
2023-02-24T00:14:36.618Z,57.72
2023-02-24T00:17:08.069Z,68.82
2023-02-24T00:19:37.501Z,63.95
2023-02-24T00:22:06.757Z,74.22
2023-02-24T00:24:36.682Z,66.07
2023-02-24T00:27:12.385Z,72.88
2023-02-24T00:29:42.389Z,61.20
2023-02-24T00:32:13.825Z,72.55
2023-02-24T00:34:42.615Z,67.70
2023-02-24T00:37:13.224Z,65.28
2023-02-24T00:39:42.428Z,68.22
2023-02-24T00:42:10.134Z,69.85
2023-02-24T00:44:40.566Z,62.95
2023-02-24T00:47:10.636Z,61.10
2023-02-24T00:49:42.759Z,69.85
2023-02-24T00:52:14.660Z,69.82
2023-02-24T00:54:43.391Z,63.67
2023-02-24T00:57:11.665Z,70.20
2023-02-24T00:59:40.535Z,65.28
2023-02-24T01:02:08.999Z,72.13
2023-02-24T01:04:37.973Z,76.32
2023-02-24T01:07:11.169Z,69.40
2023-02-24T01:09:42.530Z,71.78
2023-02-24T01:12:27.697Z,72.20
2023-02-24T01:14:56.943Z,68.63
2023-02-24T01:17:24.683Z,68.80
2023-02-24T01:20:00.764Z,68.55
2023-02-24T01:22:29.223Z,65.15
2023-02-24T01:24:56.870Z,67.75
2023-02-24T01:27:25.436Z,71.47
2023-02-24T01:29:54.185Z,74.80
2023-02-24T01:32:22.032Z,76.25
2023-02-24T01:34:53.639Z,67.25
2023-02-24T01:37:21.521Z,64.07
2023-02-24T01:39:51.782Z,62.45
2023-02-24T01:42:22.178Z,65.10
2023-02-24T01:44:52.762Z,68.20
2023-02-24T01:47:21.949Z,76.90
2023-02-24T01:49:54.190Z,70.65
2023-02-24T01:52:25.717Z,75.65
2023-02-24T01:55:04.667Z,85.88
2023-02-24T01:57:36.303Z,78.47
2023-02-24T02:00:11.544Z,75.70
2023-02-24T02:02:42.947Z,78.10
2023-02-24T02:05:12.456Z,79.05
2023-02-24T02:07:42.047Z,75.85
2023-02-24T02:10:11.463Z,76.30
2023-02-24T02:12:44.587Z,74.10
2023-02-24T02:15:15.687Z,73.53
2023-02-24T02:17:45.942Z,79.35
2023-02-24T02:20:24.626Z,72.30
2023-02-24T02:23:21.719Z,80.43
2023-02-24T02:26:09.123Z,85.75
2023-02-24T02:28:54.159Z,80.13
2023-02-24T02:31:46.816Z,82.10
2023-02-24T02:34:33.825Z,70.68
2023-02-24T02:37:13.757Z,83.20
2023-02-24T02:40:00.349Z,75.63
2023-02-24T02:42:30.982Z,73.82
2023-02-24T02:45:06.190Z,77.40
2023-02-24T02:47:41.442Z,81.95
2023-02-24T02:50:13.205Z,76.70
2023-02-24T02:52:43.506Z,71.97
2023-02-24T02:55:22.818Z,78.90
2023-02-24T02:57:53.518Z,78.80
2023-02-24T03:00:30.269Z,78.40
2023-02-24T03:03:09.059Z,76.28
2023-02-24T03:05:47.241Z,78.97
2023-02-24T03:08:25.900Z,66.30
2023-02-24T03:10:57.731Z,73.68
2023-02-24T03:13:31.139Z,74.70
2023-02-24T03:16:04.652Z,77.25
2023-02-24T03:18:38.188Z,66.25
2023-02-24T03:21:08.079Z,68.22
2023-02-24T03:23:40.691Z,74.22
2023-02-24T03:26:17.319Z,70.97
2023-02-24T03:29:07.054Z,73.78
2023-02-24T03:31:47.116Z,74.97
2023-02-24T03:34:41.862Z,73.75
2023-02-24T03:37:11.410Z,76.68
2023-02-24T03:39:39.835Z,75.07
2023-02-24T03:42:13.338Z,75.13
2023-02-24T03:44:41.532Z,73.32
2023-02-24T03:47:10.198Z,75.43
2023-02-24T03:49:39.886Z,77.55
2023-02-24T03:52:13.523Z,71.90
2023-02-24T03:55:12.363Z,78.82
2023-02-24T03:57:55.731Z,75.65
2023-02-24T04:00:35.831Z,76.57
2023-02-24T04:03:25.719Z,70.75
2023-02-24T04:06:16.218Z,80.57
2023-02-24T04:08:53.605Z,83.40
2023-02-24T04:11:27.471Z,78.95
2023-02-24T04:14:06.868Z,84.63
2023-02-24T04:16:41.694Z,78.22
2023-02-24T04:19:14.233Z,80.88
2023-02-24T04:21:44.531Z,76.60
2023-02-24T04:24:16.543Z,82.75
2023-02-24T04:26:46.573Z,68.97
2023-02-24T04:29:24.054Z,72.53
2023-02-24T04:31:58.955Z,65.10
2023-02-24T04:34:32.747Z,66.88
2023-02-24T04:37:03.622Z,67.35
2023-02-24T04:39:33.119Z,65.68
2023-02-24T04:42:02.068Z,64.60
2023-02-24T04:44:30.233Z,71.70
2023-02-24T04:46:59.152Z,72.55
2023-02-24T04:49:28.579Z,62.08
2023-02-24T04:51:58.185Z,71.00
2023-02-24T04:54:25.810Z,72.18
2023-02-24T04:56:54.126Z,73.68
2023-02-24T04:59:22.511Z,72.45
2023-02-24T05:01:55.030Z,73.30
2023-02-24T05:04:21.871Z,72.80
2023-02-24T05:06:50.512Z,72.95
2023-02-24T05:09:19.219Z,68.45
2023-02-24T05:11:49.510Z,70.25
2023-02-24T05:14:21.079Z,69.30
2023-02-24T05:16:51.117Z,66.18
2023-02-24T05:19:35.634Z,75.95
2023-02-24T05:22:07.831Z,64.32
2023-02-24T05:24:35.556Z,68.93
2023-02-24T05:27:04.410Z,75.80
2023-02-24T05:29:35.410Z,76.43
2023-02-24T05:32:06.344Z,74.18
2023-02-24T05:34:36.318Z,83.82
2023-02-24T05:37:10.411Z,93.88
2023-02-24T05:39:41.341Z,91.30
2023-02-24T05:42:08.502Z,88.18
2023-02-24T05:44:36.409Z,81.55
2023-02-24T05:47:06.118Z,88.10
2023-02-24T05:49:35.680Z,92.95
2023-02-24T05:52:10.028Z,82.88
2023-02-24T05:54:40.324Z,86.07
2023-02-24T05:57:12.723Z,85.00
2023-02-24T05:59:42.375Z,87.57
2023-02-24T06:02:13.580Z,96.82
2023-02-24T06:04:58.875Z,92.70
2023-02-24T06:07:28.835Z,88.75
2023-02-24T06:09:58.410Z,86.85
2023-02-24T06:12:31.786Z,82.20
2023-02-24T06:15:02.426Z,92.90
2023-02-24T06:17:29.931Z,87.07
2023-02-24T06:19:58.436Z,88.93
2023-02-24T06:22:27.512Z,81.22
2023-02-24T06:24:57.386Z,86.32
2023-02-24T06:27:25.597Z,90.13
2023-02-24T06:29:55.055Z,92.05
2023-02-24T06:32:26.274Z,89.70
2023-02-24T06:34:55.660Z,93.97
2023-02-24T06:37:26.248Z,87.35
2023-02-24T06:39:54.003Z,86.72
2023-02-24T06:42:25.924Z,89.07
2023-02-24T06:44:55.273Z,88.60
2023-02-24T06:47:24.326Z,100.25
2023-02-24T06:49:53.436Z,89.43
2023-02-24T06:52:22.119Z,90.68
2023-02-24T06:54:52.537Z,91.15
2023-02-24T06:57:21.595Z,96.88
2023-02-24T06:59:49.784Z,91.03
2023-02-24T07:02:17.713Z,94.20
2023-02-24T07:04:49.942Z,89.93
2023-02-24T07:07:19.826Z,90.88
2023-02-24T07:09:47.615Z,99.45
2023-02-24T07:12:21.424Z,101.28
2023-02-24T07:14:51.046Z,97.63
2023-02-24T07:17:21.052Z,103.03
2023-02-24T07:19:49.040Z,102.93
2023-02-24T07:22:18.278Z,106.95
2023-02-24T07:24:46.809Z,114.40
2023-02-24T07:27:24.297Z,106.68
2023-02-24T07:29:53.767Z,92.13
2023-02-24T07:32:23.906Z,99.90
2023-02-24T07:34:52.622Z,102.88
2023-02-24T07:37:25.404Z,101.85
2023-02-24T07:39:55.366Z,102.72
2023-02-24T07:42:24.341Z,96.00
2023-02-24T07:44:52.767Z,103.53
2023-02-24T07:47:22.096Z,104.45
2023-02-24T07:49:51.798Z,102.03
2023-02-24T07:52:20.485Z,102.18
2023-02-24T07:54:50.690Z,106.55
2023-02-24T07:57:19.399Z,100.38
2023-02-24T07:59:48.756Z,112.70
2023-02-24T08:02:19.256Z,105.80
2023-02-24T08:04:52.644Z,105.60
2023-02-24T08:07:25.571Z,92.30
2023-02-24T08:10:09.936Z,104.72
2023-02-24T08:12:43.578Z,107.85
2023-02-24T08:15:25.186Z,98.78
2023-02-24T08:18:00.637Z,105.38
2023-02-24T08:20:52.290Z,96.60
2023-02-24T08:23:20.709Z,98.57
2023-02-24T08:25:49.678Z,103.63
2023-02-24T08:28:19.184Z,99.45
2023-02-24T08:30:52.262Z,89.85
2023-02-24T08:33:23.391Z,95.35
2023-02-24T08:36:02.684Z,85.15
2023-02-24T08:38:42.764Z,87.57
2023-02-24T08:41:18.930Z,84.60
2023-02-24T08:43:50.017Z,79.43
2023-02-24T08:46:27.076Z,75.70
2023-02-24T08:48:58.513Z,84.18
2023-02-24T08:51:35.607Z,77.13
2023-02-24T08:56:50.993Z,72.45
2023-02-24T08:59:35.618Z,82.95
2023-02-24T09:02:30.833Z,74.95
2023-02-24T09:05:13.874Z,75.28
2023-02-24T09:07:45.582Z,74.05
2023-02-24T09:10:19.558Z,74.20
2023-02-24T09:12:49.607Z,70.07
2023-02-24T09:15:17.960Z,79.97
2023-02-24T09:17:47.064Z,72.85
2023-02-24T09:20:34.705Z,77.70
2023-02-24T09:23:05.499Z,74.60
2023-02-24T09:25:51.231Z,78.82
2023-02-24T09:28:26.042Z,67.47
2023-02-24T09:30:56.216Z,77.72
2023-02-24T09:33:39.234Z,67.78
2023-02-24T09:36:31.007Z,71.80
2023-02-24T09:39:02.565Z,64.40
2023-02-24T09:41:33.337Z,68.75
2023-02-24T09:44:18.804Z,71.68
2023-02-24T09:46:56.083Z,65.60
2023-02-24T09:49:41.284Z,57.08
2023-02-24T09:52:18.810Z,56.13
2023-02-24T09:55:07.991Z,53.33
2023-02-24T09:58:04.386Z,52.53
2023-02-24T10:00:45.083Z,48.72
2023-02-24T10:03:43.127Z,48.30
2023-02-24T10:06:23.251Z,49.60
2023-02-24T10:09:11.978Z,43.63
2023-02-24T10:11:54.787Z,47.80
2023-02-24T10:14:24.183Z,48.83
2023-02-24T10:17:12.016Z,39.88
2023-02-24T10:19:41.658Z,41.28
2023-02-24T10:22:29.216Z,39.38
2023-02-24T10:25:37.230Z,48.92
2023-02-24T10:28:37.520Z,36.70
2023-02-24T10:31:26.445Z,36.38
2023-02-24T10:34:06.842Z,37.20
2023-02-24T10:36:37.425Z,40.53
2023-02-24T10:39:21.329Z,39.80
2023-02-24T10:41:58.879Z,38.50
2023-02-24T10:44:37.120Z,37.15
2023-02-24T10:47:13.852Z,41.33
2023-02-24T10:49:43.640Z,37.55
2023-02-24T10:52:40.429Z,41.10
2023-02-24T10:55:35.176Z,42.10
2023-02-24T10:58:07.702Z,38.13
2023-02-24T11:01:01.856Z,35.67
2023-02-24T11:03:46.577Z,49.70
2023-02-24T11:06:32.665Z,40.58
2023-02-24T11:09:19.950Z,33.97
2023-02-24T11:12:05.482Z,41.13
2023-02-24T11:15:03.138Z,38.57
2023-02-24T11:17:32.162Z,38.83
2023-02-24T11:20:11.856Z,38.60
2023-02-24T11:22:43.172Z,42.90
2023-02-24T11:25:47.566Z,41.90
2023-02-24T11:28:31.832Z,39.50
2023-02-24T11:31:15.263Z,35.25
2023-02-24T11:34:10.358Z,30.17
2023-02-24T11:36:59.083Z,33.92
2023-02-24T11:39:53.353Z,28.95
2023-02-24T11:42:33.309Z,35.45
2023-02-24T11:45:19.887Z,35.85
2023-02-24T11:48:00.258Z,32.20
2023-02-24T11:50:53.455Z,35.90
2023-02-24T11:53:50.895Z,34.63
2023-02-24T11:59:12.604Z,35.33
2023-02-24T12:01:47.350Z,34.83
2023-02-24T12:04:34.172Z,35.47
2023-02-24T12:07:33.874Z,35.50
2023-02-24T12:10:17.126Z,33.50
2023-02-24T12:12:53.981Z,42.50
2023-02-24T12:15:24.974Z,31.27
2023-02-24T12:17:59.083Z,32.25
2023-02-24T12:20:42.843Z,34.60
2023-02-24T12:23:25.123Z,36.13
2023-02-24T12:26:14.309Z,31.40
2023-02-24T12:29:08.177Z,31.40
2023-02-24T12:31:56.562Z,27.30
2023-02-24T12:34:31.103Z,32.38
2023-02-24T12:37:18.201Z,28.90
2023-02-24T12:40:03.332Z,24.92
2023-02-24T12:42:56.854Z,23.98
2023-02-24T12:45:37.624Z,26.90
2023-02-24T12:48:08.034Z,27.98
2023-02-24T12:50:49.464Z,24.65
2023-02-24T12:53:37.458Z,27.90
2023-02-24T12:56:29.577Z,30.23
2023-02-24T12:59:05.875Z,29.23
2023-02-24T13:01:54.364Z,29.67
2023-02-24T13:04:52.168Z,28.98
2023-02-24T13:07:37.845Z,30.05
2023-02-24T13:10:21.482Z,28.60
2023-02-24T13:12:58.044Z,28.50
2023-02-24T13:15:32.327Z,30.23
2023-02-24T13:18:02.154Z,23.30
2023-02-24T13:20:36.882Z,23.95
2023-02-24T13:23:20.714Z,23.38
2023-02-24T13:25:53.769Z,22.80
2023-02-24T13:28:25.525Z,22.50
2023-02-24T13:31:03.082Z,27.55
2023-02-24T13:33:35.733Z,21.95
2023-02-24T13:36:23.781Z,23.98
2023-02-24T13:39:20.799Z,34.75
2023-02-24T13:41:49.163Z,25.13
2023-02-24T13:44:27.388Z,22.70
2023-02-24T13:47:29.007Z,27.15
2023-02-24T13:50:16.632Z,22.80
2023-02-24T13:52:59.646Z,30.23
2023-02-24T13:55:51.045Z,27.95
2023-02-24T13:58:40.749Z,26.17
2023-02-24T14:01:18.778Z,22.98
2023-02-24T14:04:06.299Z,22.95
2023-02-24T14:06:37.945Z,20.52
2023-02-24T14:09:07.018Z,19.85
2023-02-24T14:11:39.459Z,18.85
2023-02-24T14:14:17.780Z,18.58
2023-02-24T14:16:50.166Z,26.70
2023-02-24T14:19:18.505Z,20.70
2023-02-24T14:21:50.791Z,18.67
2023-02-24T14:24:20.488Z,26.00
2023-02-24T14:26:52.241Z,25.48
2023-02-24T14:29:22.961Z,23.70
2023-02-24T14:31:55.834Z,21.88
2023-02-24T14:34:28.812Z,26.92
2023-02-24T14:37:03.222Z,23.25
2023-02-24T14:39:35.130Z,22.98
2023-02-24T14:42:12.727Z,25.25
2023-02-24T14:44:45.858Z,30.08
2023-02-24T14:47:18.233Z,23.25
2023-02-24T14:50:03.473Z,23.42
2023-02-24T14:52:36.204Z,23.48
2023-02-24T14:55:22.544Z,23.15
2023-02-24T14:58:03.153Z,23.55
2023-02-24T15:00:37.811Z,21.20
2023-02-24T15:03:13.682Z,28.80
2023-02-24T15:05:46.203Z,18.85
2023-02-24T15:08:39.220Z,27.17
2023-02-24T15:11:23.108Z,23.48
2023-02-24T15:13:57.027Z,23.90
2023-02-24T15:16:35.833Z,26.10
2023-02-24T15:19:05.337Z,22.58
2023-02-24T15:21:40.992Z,25.55
2023-02-24T15:24:30.183Z,26.33
2023-02-24T15:27:02.453Z,28.30
2023-02-24T15:29:32.325Z,29.27
2023-02-24T15:32:01.838Z,26.90
2023-02-24T15:34:36.339Z,26.45
2023-02-24T15:37:17.974Z,25.77
2023-02-24T15:39:46.287Z,31.27
2023-02-24T15:42:29.062Z,23.38
2023-02-24T15:44:59.624Z,30.35
2023-02-24T15:47:34.805Z,28.08
2023-02-24T15:50:04.774Z,27.02
2023-02-24T15:52:34.538Z,23.30
2023-02-24T15:55:04.051Z,28.75
2023-02-24T15:57:34.749Z,33.10
2023-02-24T16:00:09.881Z,31.50
2023-02-24T16:02:37.843Z,36.42
2023-02-24T16:05:06.384Z,30.02
2023-02-24T16:07:38.780Z,31.77
2023-02-24T16:10:10.911Z,31.90
2023-02-24T16:12:47.006Z,30.77
2023-02-24T16:15:21.007Z,33.03
2023-02-24T16:17:52.367Z,35.28
2023-02-24T16:20:28.038Z,29.38
2023-02-24T16:22:58.741Z,29.48
2023-02-24T16:25:30.515Z,34.38
2023-02-24T16:27:58.641Z,30.30
2023-02-24T16:30:31.789Z,33.10
2023-02-24T16:33:05.139Z,33.90
2023-02-24T16:35:33.024Z,41.95
2023-02-24T16:38:01.098Z,33.67
2023-02-24T16:40:38.356Z,41.05
2023-02-24T16:43:06.950Z,41.47
2023-02-24T16:45:37.023Z,33.83
2023-02-24T16:48:09.865Z,37.58
2023-02-24T16:50:41.220Z,41.92
2023-02-24T16:53:16.189Z,34.47
2023-02-24T16:55:43.759Z,33.77
2023-02-24T16:58:13.242Z,34.30
2023-02-24T17:00:43.635Z,33.88
2023-02-24T17:03:21.087Z,34.50
2023-02-24T17:05:50.574Z,39.75
2023-02-24T17:08:19.093Z,42.00
2023-02-24T17:10:50.358Z,50.40
2023-02-24T17:13:21.050Z,42.42
2023-02-24T17:15:55.270Z,34.42
2023-02-24T17:18:25.674Z,41.72
2023-02-24T17:20:56.269Z,33.30
2023-02-24T17:23:24.894Z,39.05
2023-02-24T17:25:55.291Z,38.95
2023-02-24T17:28:23.075Z,39.17
2023-02-24T17:30:51.247Z,43.30
2023-02-24T17:33:20.799Z,40.63
2023-02-24T17:35:49.487Z,24.70
2023-02-24T17:38:19.811Z,26.60
2023-02-24T17:40:48.451Z,28.67
2023-02-24T17:43:16.698Z,19.95
2023-02-24T17:45:46.326Z,21.55
2023-02-24T17:48:15.083Z,29.02
2023-02-24T17:50:44.351Z,29.80
2023-02-24T17:53:12.941Z,28.75
2023-02-24T17:55:55.803Z,22.25
2023-02-24T17:58:28.271Z,28.17
2023-02-24T18:00:55.711Z,20.88
2023-02-24T18:03:23.596Z,26.88
2023-02-24T18:05:59.704Z,23.98
2023-02-24T18:08:28.764Z,24.70
2023-02-24T18:11:00.016Z,24.40
2023-02-24T18:13:31.465Z,25.77
2023-02-24T18:16:01.019Z,26.55
2023-02-24T18:18:31.435Z,24.42
2023-02-24T18:21:02.995Z,26.23
2023-02-24T18:23:30.922Z,31.77
2023-02-24T18:26:03.642Z,27.90
2023-02-24T18:28:32.255Z,22.70
2023-02-24T18:31:02.505Z,29.75
2023-02-24T18:33:31.537Z,27.08
2023-02-24T18:36:01.765Z,29.40
2023-02-24T18:38:31.645Z,26.35
2023-02-24T18:41:01.267Z,28.77
2023-02-24T18:43:30.763Z,24.70
2023-02-24T18:46:00.366Z,25.50
2023-02-24T18:48:30.536Z,26.63
2023-02-24T18:50:59.366Z,22.95
2023-02-24T18:53:31.302Z,27.60
2023-02-24T18:56:01.905Z,25.20
2023-02-24T18:58:32.089Z,17.27
2023-02-24T19:00:59.820Z,22.45
2023-02-24T19:03:28.092Z,20.77
2023-02-24T19:05:57.507Z,17.15
2023-02-24T19:08:28.991Z,17.17
2023-02-24T19:10:59.422Z,22.75
2023-02-24T19:13:27.688Z,13.48
2023-02-24T19:15:55.516Z,24.98
2023-02-24T19:18:24.010Z,24.48
2023-02-24T19:20:52.509Z,21.80
2023-02-24T19:23:20.981Z,19.40
2023-02-24T19:25:49.898Z,18.88
2023-02-24T19:28:18.303Z,15.90
2023-02-24T19:31:00.853Z,19.13
2023-02-24T19:33:47.720Z,23.60
2023-02-24T19:36:53.804Z,22.95
2023-02-24T19:43:03.036Z,22.65
2023-02-24T19:46:12.606Z,31.95
2023-02-24T19:49:14.020Z,22.08
2023-02-24T19:52:22.843Z,26.77
2023-02-24T19:55:32.069Z,17.23
2023-02-24T19:58:40.969Z,18.98
2023-02-24T20:01:44.369Z,27.33
2023-02-24T20:04:51.901Z,27.20
2023-02-24T20:07:53.605Z,16.13
2023-02-24T20:11:12.247Z,23.42
2023-02-24T20:14:22.232Z,23.70
2023-02-24T20:17:31.018Z,17.85
2023-02-24T20:20:43.130Z,22.92
2023-02-24T20:23:46.056Z,23.70
2023-02-24T20:26:53.963Z,25.63
2023-02-24T20:29:57.869Z,18.52
2023-02-24T20:33:07.178Z,23.77
2023-02-24T20:36:23.569Z,24.45
2023-02-24T20:39:31.690Z,29.00
2023-02-24T20:42:40.456Z,21.17
2023-02-24T20:45:50.327Z,19.17
2023-02-24T23:10:19.274Z,17.90
2023-02-24T23:13:27.270Z,14.82
2023-02-24T23:16:38.351Z,19.42
2023-02-24T23:19:46.284Z,19.13
2023-02-24T23:22:50.572Z,25.35
2023-02-24T23:25:59.289Z,17.60
2023-02-24T23:28:59.637Z,18.77
2023-02-24T23:32:06.397Z,20.33
2023-02-24T23:35:06.353Z,17.83
2023-02-24T23:38:14.269Z,18.88
2023-02-24T23:41:23.309Z,14.77
2023-02-24T23:44:23.660Z,20.90
2023-02-24T23:47:30.266Z,24.73
2023-02-24T23:50:31.926Z,21.40
2023-02-24T23:53:32.262Z,20.15
2023-02-24T23:56:41.288Z,25.60
2023-02-24T23:59:42.254Z,26.95
